createdAt,value
2023-02-11T00:01:04.000Z,20.1
2023-02-11T00:02:13.690Z,20.1
2023-02-11T00:03:23.000Z,20.1
2023-02-11T00:04:33.000Z,20.1
2023-02-11T00:05:44.050Z,20.1
2023-02-11T00:06:54.000Z,20.1
2023-02-11T00:08:04.271Z,20.1
2023-02-11T00:09:14.000Z,20.1
2023-02-11T00:10:23.534Z,20.1
2023-02-11T00:11:32.666Z,20.1
2023-02-11T00:12:41.000Z,20.1
2023-02-11T00:13:50.932Z,20.1
2023-02-11T00:15:00.074Z,20.1
2023-02-11T00:16:09.218Z,20.1
2023-02-11T00:17:19.000Z,20.1
2023-02-11T00:18:29.441Z,20.1
2023-02-11T00:19:39.000Z,20.1
2023-02-11T00:20:49.000Z,20.1
2023-02-11T00:21:59.000Z,20.1
2023-02-11T00:23:09.910Z,20.1
2023-02-11T00:24:20.000Z,20.1
2023-02-11T00:25:30.148Z,20.1
2023-02-11T00:26:40.249Z,20.1
2023-02-11T00:27:50.366Z,20
2023-02-11T00:29:00.000Z,20.1
2023-02-11T00:30:10.604Z,20
2023-02-11T00:31:19.000Z,20
2023-02-11T00:32:29.843Z,20
2023-02-11T00:33:39.000Z,20
2023-02-11T00:34:50.000Z,20
2023-02-11T00:36:00.195Z,20
2023-02-11T00:37:10.305Z,20
2023-02-11T00:38:20.000Z,20
2023-02-11T00:39:29.566Z,20
2023-02-11T00:40:38.704Z,20
2023-02-11T00:41:47.845Z,20
2023-02-11T00:42:56.000Z,20
2023-02-11T00:44:07.000Z,20
2023-02-11T00:45:17.209Z,20
2023-02-11T00:46:27.000Z,20
2023-02-11T00:47:37.000Z,20
2023-02-11T00:48:47.000Z,20
2023-02-11T00:49:57.000Z,20
2023-02-11T00:51:07.000Z,20
2023-02-11T00:52:17.000Z,20
2023-02-11T00:53:27.038Z,20
2023-02-11T00:54:37.000Z,20
2023-02-11T00:55:47.000Z,20
2023-02-11T00:56:57.000Z,20
2023-02-11T00:58:07.513Z,20
2023-02-11T00:59:17.622Z,20
2023-02-11T01:00:27.731Z,20
2023-02-11T01:01:37.000Z,19.9
2023-02-11T01:02:47.974Z,19.9
2023-02-11T01:03:58.082Z,20
2023-02-11T01:05:08.000Z,20
2023-02-11T01:06:17.000Z,19.9
2023-02-11T01:07:26.480Z,19.9
2023-02-11T01:08:36.589Z,19.9
2023-02-11T01:09:46.707Z,19.9
2023-02-11T01:10:55.000Z,19.9
2023-02-11T01:12:05.974Z,19.9
2023-02-11T01:13:15.000Z,19.9
2023-02-11T01:14:25.000Z,19.9
2023-02-11T01:15:35.000Z,19.9
2023-02-11T01:16:45.000Z,19.9
2023-02-11T01:17:55.000Z,19.9
2023-02-11T01:19:05.676Z,19.9
2023-02-11T01:20:15.798Z,19.9
2023-02-11T01:21:25.000Z,19.9
2023-02-11T01:22:36.000Z,19.9
2023-02-11T01:23:46.000Z,19.9
2023-02-11T01:24:56.256Z,19.9
2023-02-11T01:26:06.367Z,19.9
2023-02-11T01:27:16.490Z,19.9
2023-02-11T01:28:25.626Z,19.9
2023-02-11T01:29:35.000Z,19.9
2023-02-11T01:30:45.000Z,19.9
2023-02-11T01:31:55.000Z,19.9
2023-02-11T01:33:06.000Z,19.9
2023-02-11T01:34:16.000Z,19.9
2023-02-11T01:35:25.000Z,19.9
2023-02-11T01:36:34.477Z,19.9
2023-02-11T01:37:43.616Z,19.9
2023-02-11T01:38:52.760Z,19.9
2023-02-11T01:40:02.872Z,19.9
2023-02-11T01:41:12.981Z,19.9
2023-02-11T01:42:23.000Z,19.9
2023-02-11T01:43:33.000Z,19.9
2023-02-11T01:44:43.329Z,19.9
2023-02-11T01:45:53.439Z,19.9
2023-02-11T01:47:03.560Z,19.9
2023-02-11T01:48:13.000Z,19.9
2023-02-11T01:49:23.788Z,19.9
2023-02-11T01:50:33.000Z,19.9
2023-02-11T01:51:44.026Z,19.9
2023-02-11T01:52:54.000Z,19.8
2023-02-11T01:54:03.000Z,19.8
2023-02-11T01:55:13.389Z,19.8
2023-02-11T01:56:23.502Z,19.9
2023-02-11T01:57:33.000Z,19.8
2023-02-11T01:58:43.000Z,19.8
2023-02-11T01:59:53.847Z,19.8
2023-02-11T02:01:03.962Z,19.8
2023-02-11T02:02:13.109Z,19.8
2023-02-11T02:03:22.241Z,19.8
2023-02-11T02:04:31.000Z,19.8
2023-02-11T02:05:40.514Z,19.8
2023-02-11T02:06:50.000Z,19.8
2023-02-11T02:08:00.000Z,19.8
2023-02-11T02:09:10.000Z,19.8
2023-02-11T02:10:20.000Z,19.8
2023-02-11T02:11:31.088Z,19.8
2023-02-11T02:12:41.212Z,19.8
2023-02-11T02:13:51.000Z,19.8
2023-02-11T02:15:01.000Z,19.8
2023-02-11T02:16:11.000Z,19.8
2023-02-11T02:17:21.000Z,19.8
2023-02-11T02:18:31.797Z,19.8
2023-02-11T02:19:41.901Z,19.8
2023-02-11T02:20:51.000Z,19.8
2023-02-11T02:22:01.000Z,19.8
2023-02-11T02:23:11.000Z,19.8
2023-02-11T02:24:21.000Z,19.8
2023-02-11T02:25:31.509Z,19.8
2023-02-11T02:26:41.612Z,19.8
2023-02-11T02:27:51.000Z,19.8
2023-02-11T02:29:00.873Z,19.8
2023-02-11T02:30:10.000Z,19.8
2023-02-11T02:31:19.145Z,19.8
2023-02-11T02:32:29.000Z,19.7
2023-02-11T02:33:38.000Z,19.8
2023-02-11T02:34:48.000Z,19.8
2023-02-11T02:35:58.000Z,19.8
2023-02-11T02:37:08.000Z,19.7
2023-02-11T02:38:18.000Z,19.8
2023-02-11T02:39:28.000Z,19.7
2023-02-11T02:40:39.000Z,19.8
2023-02-11T02:41:49.212Z,19.7
2023-02-11T02:42:59.321Z,19.7
2023-02-11T02:44:09.439Z,19.7
2023-02-11T02:45:19.553Z,19.7
2023-02-11T02:46:29.000Z,19.7
2023-02-11T02:47:39.000Z,19.7
2023-02-11T02:48:48.000Z,19.7
2023-02-11T02:49:59.000Z,19.7
2023-02-11T02:51:09.000Z,19.7
2023-02-11T02:52:19.271Z,19.7
2023-02-11T02:53:29.000Z,19.7
2023-02-11T02:54:39.000Z,19.7
2023-02-11T02:55:48.000Z,19.7
2023-02-11T02:56:57.000Z,19.7
2023-02-11T02:58:06.922Z,19.7
2023-02-11T02:59:16.053Z,19.7
2023-02-11T03:00:26.000Z,19.7
2023-02-11T03:01:36.000Z,19.7
2023-02-11T03:02:46.000Z,19.7
2023-02-11T03:03:56.000Z,19.7
2023-02-11T03:05:06.630Z,19.7
2023-02-11T03:06:16.740Z,19.7
2023-02-11T03:07:26.857Z,19.7
2023-02-11T03:08:36.983Z,19.7
2023-02-11T03:09:47.104Z,19.7
2023-02-11T03:10:57.218Z,19.7
2023-02-11T03:12:07.000Z,19.7
2023-02-11T03:13:17.444Z,19.7
2023-02-11T03:14:26.572Z,19.7
2023-02-11T03:15:36.687Z,19.7
2023-02-11T03:16:46.000Z,19.7
2023-02-11T03:17:56.934Z,19.7
2023-02-11T03:19:07.000Z,19.7
2023-02-11T03:20:17.162Z,19.7
2023-02-11T03:21:27.275Z,19.7
2023-02-11T03:22:36.000Z,19.7
2023-02-11T03:23:45.000Z,19.7
2023-02-11T03:24:55.000Z,19.7
2023-02-11T03:26:05.769Z,19.7
2023-02-11T03:27:15.891Z,19.7
2023-02-11T03:28:26.000Z,19.7
2023-02-11T03:29:36.125Z,19.7
2023-02-11T03:30:46.237Z,19.6
2023-02-11T03:31:56.363Z,19.6
2023-02-11T03:33:06.000Z,19.7
2023-02-11T03:34:16.592Z,19.7
2023-02-11T03:35:26.705Z,19.7
2023-02-11T03:36:36.000Z,19.6
2023-02-11T03:37:46.000Z,19.6
2023-02-11T03:38:56.000Z,19.6
2023-02-11T03:40:06.000Z,19.6
2023-02-11T03:41:16.000Z,19.6
2023-02-11T03:42:26.414Z,19.6
2023-02-11T03:43:36.000Z,19.6
2023-02-11T03:44:46.000Z,19.6
2023-02-11T03:45:56.759Z,19.6
2023-02-11T03:47:05.000Z,19.6
2023-02-11T03:48:15.052Z,19.6
2023-02-11T03:49:24.000Z,19.6
2023-02-11T03:50:33.000Z,19.6
2023-02-11T03:51:43.425Z,19.6
2023-02-11T03:52:53.000Z,19.6
2023-02-11T03:54:02.685Z,19.6
2023-02-11T03:55:11.825Z,19.6
2023-02-11T03:56:21.000Z,19.6
2023-02-11T03:57:32.000Z,19.6
2023-02-11T03:58:42.159Z,19.6
2023-02-11T03:59:52.288Z,19.6
2023-02-11T04:01:02.391Z,19.6
2023-02-11T04:02:12.000Z,19.6
2023-02-11T04:03:22.000Z,19.6
2023-02-11T04:04:32.744Z,19.6
2023-02-11T04:05:42.000Z,19.6
2023-02-11T04:06:52.000Z,19.6
2023-02-11T04:08:03.104Z,19.6
2023-02-11T04:09:13.205Z,19.6
2023-02-11T04:10:22.335Z,19.6
2023-02-11T04:11:32.458Z,19.6
2023-02-11T04:12:42.564Z,19.6
2023-02-11T04:13:52.000Z,19.6
2023-02-11T04:15:02.802Z,19.6
2023-02-11T04:16:12.912Z,19.6
2023-02-11T04:17:23.029Z,19.6
2023-02-11T04:18:32.000Z,19.6
2023-02-11T04:19:41.000Z,19.6
2023-02-11T04:20:51.000Z,19.6
2023-02-11T04:22:00.000Z,19.6
2023-02-11T04:23:09.000Z,19.6
2023-02-11T04:24:19.816Z,19.6
2023-02-11T04:25:29.000Z,19.6
2023-02-11T04:27:50.157Z,19.6
2023-02-11T04:29:00.000Z,19.6
2023-02-11T04:30:10.000Z,19.6
2023-02-11T04:31:20.000Z,19.6
2023-02-11T04:32:30.000Z,19.6
2023-02-11T04:33:40.738Z,19.6
2023-02-11T04:34:50.000Z,19.6
2023-02-11T04:36:00.977Z,19.5
2023-02-11T04:37:11.000Z,19.6
2023-02-11T04:38:20.000Z,19.6
2023-02-11T04:39:30.000Z,19.5
2023-02-11T04:40:40.450Z,19.5
2023-02-11T04:41:50.000Z,19.5
2023-02-11T04:43:00.000Z,19.5
2023-02-11T04:44:10.000Z,19.5
2023-02-11T04:45:20.000Z,19.5
2023-02-11T04:46:31.000Z,19.5
2023-02-11T04:47:40.178Z,19.5
2023-02-11T04:48:49.000Z,19.5
2023-02-11T04:49:59.428Z,19.5
2023-02-11T04:51:08.000Z,19.5
2023-02-11T04:52:17.704Z,19.5
2023-02-11T04:53:27.000Z,19.5
2023-02-11T04:54:37.937Z,19.5
2023-02-11T04:55:48.055Z,19.5
2023-02-11T04:56:58.000Z,19.5
2023-02-11T04:58:08.287Z,19.5
2023-02-11T04:59:18.396Z,19.5
2023-02-11T05:00:28.512Z,19.5
2023-02-11T05:01:38.630Z,19.5
2023-02-11T05:02:48.000Z,19.5
2023-02-11T05:03:58.000Z,19.5
2023-02-11T05:05:08.974Z,19.5
2023-02-11T05:06:19.098Z,19.5
2023-02-11T05:07:28.227Z,19.5
2023-02-11T05:08:38.000Z,19.5
2023-02-11T05:09:48.461Z,19.5
2023-02-11T05:10:58.000Z,19.5
2023-02-11T05:12:08.695Z,19.5
2023-02-11T05:13:18.807Z,19.5
2023-02-11T05:14:28.919Z,19.5
2023-02-11T05:15:38.000Z,19.5
2023-02-11T05:16:47.000Z,19.5
2023-02-11T05:17:56.345Z,19.5
2023-02-11T05:19:05.000Z,19.5
2023-02-11T05:20:15.583Z,19.5
2023-02-11T05:21:25.713Z,19.5
2023-02-11T05:22:35.000Z,19.5
2023-02-11T05:23:45.929Z,19.5
2023-02-11T05:24:56.049Z,19.5
2023-02-11T05:26:06.000Z,19.5
2023-02-11T05:27:16.280Z,19.5
2023-02-11T05:28:26.000Z,19.5
2023-02-11T05:29:36.509Z,19.5
2023-02-11T05:30:46.634Z,19.5
2023-02-11T05:31:56.747Z,19.5
2023-02-11T05:33:06.000Z,19.5
2023-02-11T05:34:15.993Z,19.5
2023-02-11T05:35:26.107Z,19.5
2023-02-11T05:36:36.223Z,19.5
2023-02-11T05:37:46.341Z,19.5
2023-02-11T05:38:56.455Z,19.5
2023-02-11T05:40:06.573Z,19.5
2023-02-11T05:41:16.000Z,19.5
2023-02-11T05:42:25.000Z,19.5
2023-02-11T05:43:34.000Z,19.5
2023-02-11T05:44:45.085Z,19.5
2023-02-11T05:45:55.000Z,19.5
2023-02-11T05:47:05.000Z,19.5
2023-02-11T05:48:15.000Z,19.5
2023-02-11T05:49:25.000Z,19.5
2023-02-11T05:50:35.655Z,19.5
2023-02-11T05:51:45.771Z,19.5
2023-02-11T05:52:55.887Z,19.5
2023-02-11T05:54:06.007Z,19.5
2023-02-11T05:55:16.000Z,19.5
2023-02-11T05:56:26.000Z,19.5
2023-02-11T05:57:36.349Z,19.5
2023-02-11T05:58:45.000Z,19.4
2023-02-11T05:59:55.610Z,19.4
2023-02-11T06:01:05.000Z,19.4
2023-02-11T06:02:15.855Z,19.4
2023-02-11T06:03:25.944Z,19.4
2023-02-11T06:04:36.065Z,19.4
2023-02-11T06:05:46.183Z,19.4
2023-02-11T06:06:55.324Z,19.4
2023-02-11T06:08:04.000Z,19.4
2023-02-11T06:09:13.596Z,19.4
2023-02-11T06:10:22.724Z,19.4
2023-02-11T06:11:32.000Z,19.4
2023-02-11T06:12:42.957Z,19.4
2023-02-11T06:13:53.074Z,19.4
2023-02-11T06:15:03.000Z,19.4
2023-02-11T06:16:13.000Z,19.4
2023-02-11T06:17:23.429Z,19.4
2023-02-11T06:18:33.538Z,19.4
2023-02-11T06:19:43.000Z,19.4
2023-02-11T06:20:53.000Z,19.4
2023-02-11T06:22:03.886Z,19.4
2023-02-11T06:23:14.000Z,19.4
2023-02-11T06:24:24.000Z,19.4
2023-02-11T06:25:33.000Z,19.4
2023-02-11T06:26:43.000Z,19.4
2023-02-11T06:27:53.480Z,19.4
2023-02-11T06:29:03.000Z,19.4
2023-02-11T06:30:13.000Z,19.4
2023-02-11T06:31:23.000Z,19.4
2023-02-11T06:32:33.000Z,19.4
2023-02-11T06:33:43.088Z,19.4
2023-02-11T06:34:52.214Z,19.4
2023-02-11T06:36:01.000Z,19.4
2023-02-11T06:37:10.000Z,19.4
2023-02-11T06:38:19.000Z,19.4
2023-02-11T06:39:28.000Z,19.4
2023-02-11T06:40:38.000Z,19.4
2023-02-11T06:41:48.000Z,19.4
2023-02-11T06:42:59.116Z,19.4
2023-02-11T06:44:09.229Z,19.4
2023-02-11T06:45:19.344Z,19.4
2023-02-11T06:46:29.000Z,19.4
2023-02-11T06:47:39.000Z,19.4
2023-02-11T06:48:49.694Z,19.4
2023-02-11T06:49:59.807Z,19.4
2023-02-11T06:51:09.000Z,19.4
2023-02-11T06:52:20.000Z,19.4
2023-02-11T06:53:30.155Z,19.4
2023-02-11T06:54:39.000Z,19.4
2023-02-11T06:55:49.412Z,19.4
2023-02-11T06:56:59.000Z,19.4
2023-02-11T06:58:09.000Z,19.4
2023-02-11T06:59:19.000Z,19.4
2023-02-11T07:00:29.874Z,19.4
2023-02-11T07:01:39.983Z,19.3
2023-02-11T07:02:49.125Z,19.4
2023-02-11T07:03:58.000Z,19.4
2023-02-11T07:05:08.376Z,19.3
2023-02-11T07:06:18.000Z,19.3
2023-02-11T07:07:28.603Z,19.4
2023-02-11T07:08:38.720Z,19.4
2023-02-11T07:09:48.000Z,19.3
2023-02-11T07:10:58.000Z,19.4
2023-02-11T07:12:09.000Z,19.4
2023-02-11T07:13:19.000Z,19.3
2023-02-11T07:14:29.000Z,19.3
2023-02-11T07:15:39.000Z,19.3
2023-02-11T07:16:49.000Z,19.4
2023-02-11T07:17:59.000Z,19.3
2023-02-11T07:19:08.000Z,19.3
2023-02-11T07:20:18.000Z,19.3
2023-02-11T07:21:29.000Z,19.3
2023-02-11T07:22:39.129Z,19.3
2023-02-11T07:23:49.251Z,19.3
2023-02-11T07:24:59.363Z,19.3
2023-02-11T07:26:09.000Z,19.3
2023-02-11T07:27:18.000Z,19.3
2023-02-11T07:28:27.755Z,19.3
2023-02-11T07:29:36.000Z,19.3
2023-02-11T07:30:46.000Z,19.3
2023-02-11T07:31:56.143Z,19.3
2023-02-11T07:33:06.257Z,19.3
2023-02-11T07:34:16.000Z,19.3
2023-02-11T07:35:26.000Z,19.3
2023-02-11T07:36:36.000Z,19.3
2023-02-11T07:37:46.000Z,19.3
2023-02-11T07:38:56.000Z,19.3
2023-02-11T07:40:06.000Z,19.3
2023-02-11T07:41:17.065Z,19.3
2023-02-11T07:42:27.198Z,19.3
2023-02-11T07:43:37.297Z,19.3
2023-02-11T07:44:47.428Z,19.3
2023-02-11T07:45:56.552Z,19.3
2023-02-11T07:47:06.000Z,19.3
2023-02-11T07:48:16.778Z,19.3
2023-02-11T07:49:26.000Z,19.3
2023-02-11T07:50:37.000Z,19.3
2023-02-11T07:51:47.000Z,19.3
2023-02-11T07:52:57.000Z,19.3
2023-02-11T07:54:06.000Z,19.3
2023-02-11T07:55:15.000Z,19.3
2023-02-11T07:56:25.000Z,19.3
2023-02-11T07:57:35.750Z,19.3
2023-02-11T07:58:44.899Z,19.3
2023-02-11T07:59:54.000Z,19.3
2023-02-11T08:01:04.000Z,19.3
2023-02-11T08:02:14.000Z,19.3
2023-02-11T08:03:24.000Z,19.3
2023-02-11T08:04:34.000Z,19.3
2023-02-11T08:05:44.000Z,19.3
2023-02-11T08:06:54.000Z,19.3
2023-02-11T08:08:04.000Z,19.3
2023-02-11T08:09:14.000Z,19.3
2023-02-11T08:10:25.073Z,19.3
2023-02-11T08:11:35.000Z,19.3
2023-02-11T08:12:45.000Z,19.3
2023-02-11T08:13:55.419Z,19.3
2023-02-11T08:15:04.000Z,19.3
2023-02-11T08:16:13.694Z,19.3
2023-02-11T08:17:22.000Z,19.3
2023-02-11T08:18:31.965Z,19.3
2023-02-11T08:19:42.000Z,19.3
2023-02-11T08:20:52.000Z,19.3
2023-02-11T08:22:02.318Z,19.3
2023-02-11T08:23:12.000Z,19.3
2023-02-11T08:24:22.000Z,19.3
2023-02-11T08:25:32.000Z,19.3
2023-02-11T08:26:42.000Z,19.3
2023-02-11T08:27:52.000Z,19.3
2023-02-11T08:29:03.008Z,19.3
2023-02-11T08:30:13.000Z,19.3
2023-02-11T08:31:23.243Z,19.3
2023-02-11T08:32:33.354Z,19.3
2023-02-11T08:33:42.000Z,19.3
2023-02-11T08:34:52.000Z,19.3
2023-02-11T08:36:02.000Z,19.3
2023-02-11T08:37:12.000Z,19.3
2023-02-11T08:38:22.951Z,19.3
2023-02-11T08:39:33.000Z,19.3
2023-02-11T08:40:43.000Z,19.3
2023-02-11T08:41:52.000Z,19.3
2023-02-11T08:43:01.000Z,19.3
2023-02-11T08:44:10.000Z,19.3
2023-02-11T08:45:19.000Z,19.3
2023-02-11T08:46:29.854Z,19.3
2023-02-11T08:47:39.000Z,19.3
2023-02-11T08:48:50.086Z,19.3
2023-02-11T08:50:00.000Z,19.3
2023-02-11T08:51:10.000Z,19.2
2023-02-11T08:52:20.000Z,19.3
2023-02-11T08:53:30.555Z,19.2
2023-02-11T08:54:40.000Z,19.3
2023-02-11T08:55:50.000Z,19.3
2023-02-11T08:57:00.000Z,19.3
2023-02-11T08:58:11.000Z,19.2
2023-02-11T08:59:21.000Z,19.3
2023-02-11T09:00:30.000Z,19.2
2023-02-11T09:01:40.000Z,19.2
2023-02-11T09:02:50.000Z,19.3
2023-02-11T09:04:00.000Z,19.3
2023-02-11T09:05:10.000Z,19.2
2023-02-11T09:06:20.000Z,19.2
2023-02-11T09:07:30.000Z,19.2
2023-02-11T09:08:40.099Z,19.3
2023-02-11T09:09:49.000Z,19.2
2023-02-11T09:10:58.000Z,19.3
2023-02-11T09:12:07.513Z,19.2
2023-02-11T09:13:17.621Z,19.2
2023-02-11T09:14:27.000Z,19.2
2023-02-11T09:15:37.000Z,19.2
2023-02-11T09:16:47.968Z,19.2
2023-02-11T09:17:58.000Z,19.2
2023-02-11T09:19:08.000Z,19.2
2023-02-11T09:20:18.000Z,19.2
2023-02-11T09:21:28.000Z,19.2
2023-02-11T09:22:38.000Z,19.2
2023-02-11T09:23:48.660Z,19.2
2023-02-11T09:24:58.778Z,19.2
2023-02-11T09:26:08.000Z,19.2
2023-02-11T09:27:18.025Z,19.2
2023-02-11T09:28:28.000Z,19.2
2023-02-11T09:29:38.000Z,19.2
2023-02-11T09:30:48.378Z,19.2
2023-02-11T09:31:58.000Z,19.3
2023-02-11T09:33:08.000Z,19.2
2023-02-11T09:34:18.000Z,19.2
2023-02-11T09:35:28.000Z,19.2
2023-02-11T09:36:37.981Z,19.2
2023-02-11T09:37:47.000Z,19.2
2023-02-11T09:38:56.000Z,19.2
2023-02-11T09:40:05.000Z,19.2
2023-02-11T09:41:15.000Z,19.2
2023-02-11T09:42:25.000Z,19.2
2023-02-11T09:43:35.736Z,19.2
2023-02-11T09:44:45.855Z,19.2
2023-02-11T09:45:55.000Z,19.2
2023-02-11T09:47:06.081Z,19.2
2023-02-11T09:48:16.201Z,19.2
2023-02-11T09:49:26.000Z,19.2
2023-02-11T09:50:36.000Z,19.2
2023-02-11T09:51:46.000Z,19.2
2023-02-11T09:52:56.663Z,19.2
2023-02-11T09:54:06.777Z,19.2
2023-02-11T09:55:15.000Z,19.2
2023-02-11T09:56:26.000Z,19.2
2023-02-11T09:57:36.000Z,19.2
2023-02-11T09:58:46.275Z,19.2
2023-02-11T09:59:56.373Z,19.2
2023-02-11T10:01:06.000Z,19.2
2023-02-11T10:02:16.607Z,19.2
2023-02-11T10:03:25.000Z,19.2
2023-02-11T10:04:34.000Z,19.2
2023-02-11T10:05:44.000Z,19.2
2023-02-11T10:06:53.000Z,19.2
2023-02-11T10:08:03.000Z,19.2
2023-02-11T10:09:13.000Z,19.2
2023-02-11T10:10:23.000Z,19.2
2023-02-11T10:11:33.617Z,19.2
2023-02-11T10:12:43.741Z,19.2
2023-02-11T10:13:53.000Z,19.2
2023-02-11T10:15:03.000Z,19.2
2023-02-11T10:16:14.081Z,19.2
2023-02-11T10:17:24.199Z,19.2
2023-02-11T10:18:34.324Z,19.2
2023-02-11T10:19:44.000Z,19.2
2023-02-11T10:20:54.000Z,19.2
2023-02-11T10:22:03.000Z,19.2
2023-02-11T10:23:13.000Z,19.2
2023-02-11T10:24:23.909Z,19.2
2023-02-11T10:25:34.000Z,19.2
2023-02-11T10:26:44.000Z,19.2
2023-02-11T10:27:54.000Z,19.2
2023-02-11T10:29:04.000Z,19.2
2023-02-11T10:30:13.000Z,19.2
2023-02-11T10:31:22.000Z,19.2
2023-02-11T10:32:32.770Z,19.2
2023-02-11T10:33:42.884Z,19.2
2023-02-11T10:34:52.000Z,19.2
2023-02-11T10:36:03.000Z,19.2
2023-02-11T10:37:13.000Z,19.2
2023-02-11T10:38:23.000Z,19.2
2023-02-11T10:39:33.000Z,19.2
2023-02-11T10:40:43.579Z,19.2
2023-02-11T10:41:53.690Z,19.2
2023-02-11T10:43:03.807Z,19.2
2023-02-11T10:44:13.000Z,19.2
2023-02-11T10:45:24.045Z,19.2
2023-02-11T10:46:33.000Z,19.2
2023-02-11T10:47:43.290Z,19.2
2023-02-11T10:48:53.402Z,19.2
2023-02-11T10:50:03.000Z,19.2
2023-02-11T10:51:13.000Z,19.2
2023-02-11T10:52:23.000Z,19.2
2023-02-11T10:53:33.000Z,19.2
2023-02-11T10:54:43.000Z,19.2
2023-02-11T10:55:52.000Z,19.2
2023-02-11T10:57:01.000Z,19.2
2023-02-11T10:58:10.000Z,19.2
2023-02-11T10:59:20.531Z,19.2
2023-02-11T11:00:29.000Z,19.2
2023-02-11T11:01:38.812Z,19.2
2023-02-11T11:02:48.000Z,19.2
2023-02-11T11:03:59.000Z,19.2
2023-02-11T11:05:09.150Z,19.2
2023-02-11T11:06:19.000Z,19.2
2023-02-11T11:07:29.000Z,19.2
2023-02-11T11:08:39.000Z,19.2
2023-02-11T11:09:49.615Z,19.2
2023-02-11T11:10:59.000Z,19.2
2023-02-11T11:12:09.000Z,19.2
2023-02-11T11:13:19.000Z,19.2
2023-02-11T11:14:30.000Z,19.2
2023-02-11T11:15:40.000Z,19.2
2023-02-11T11:16:49.000Z,19.2
2023-02-11T11:17:59.000Z,19.2
2023-02-11T11:19:09.000Z,19.2
2023-02-11T11:20:19.000Z,19.2
2023-02-11T11:21:29.000Z,19.2
2023-02-11T11:22:39.913Z,19.2
2023-02-11T11:23:50.021Z,19.2
2023-02-11T11:24:59.163Z,19.2
2023-02-11T11:26:08.000Z,19.2
2023-02-11T11:27:18.000Z,19.2
2023-02-11T11:28:27.000Z,19.2
2023-02-11T11:29:36.690Z,19.2
2023-02-11T11:30:46.809Z,19.2
2023-02-11T11:31:56.000Z,19.2
2023-02-11T11:33:07.034Z,19.3
2023-02-11T11:34:17.158Z,19.2
2023-02-11T11:35:27.000Z,19.3
2023-02-11T11:36:37.000Z,19.3
2023-02-11T11:37:47.000Z,19.3
2023-02-11T11:38:57.620Z,19.3
2023-02-11T11:40:07.000Z,19.3
2023-02-11T11:41:17.854Z,19.3
2023-02-11T11:42:27.959Z,19.3
2023-02-11T11:43:38.000Z,19.3
2023-02-11T11:44:47.208Z,19.3
2023-02-11T11:45:57.000Z,19.3
2023-02-11T11:47:07.000Z,19.3
2023-02-11T11:48:17.000Z,19.2
2023-02-11T11:49:27.000Z,19.2
2023-02-11T11:50:37.785Z,19.3
2023-02-11T11:51:47.000Z,19.2
2023-02-11T11:52:57.000Z,19.3
2023-02-11T11:54:06.184Z,19.3
2023-02-11T11:55:16.302Z,19.3
2023-02-11T11:56:25.453Z,19.3
2023-02-11T11:57:34.000Z,19.3
2023-02-11T11:58:44.000Z,19.3
2023-02-11T11:59:54.000Z,19.2
2023-02-11T12:01:04.000Z,19.3
2023-02-11T12:02:15.000Z,19.3
2023-02-11T12:03:25.149Z,19.3
2023-02-11T12:04:35.000Z,19.3
2023-02-11T12:05:45.000Z,19.3
2023-02-11T12:06:55.000Z,19.3
2023-02-11T12:08:05.000Z,19.3
2023-02-11T12:09:15.732Z,19.3
2023-02-11T12:10:25.000Z,19.3
2023-02-11T12:11:35.000Z,19.3
2023-02-11T12:12:45.000Z,19.3
2023-02-11T12:13:55.209Z,19.3
2023-02-11T12:15:05.000Z,19.3
2023-02-11T12:16:15.000Z,19.3
2023-02-11T12:17:25.000Z,19.3
2023-02-11T12:18:35.000Z,19.3
2023-02-11T12:19:45.000Z,19.3
2023-02-11T12:20:54.000Z,19.3
2023-02-11T12:22:04.066Z,19.3
2023-02-11T12:23:14.000Z,19.3
2023-02-11T12:24:24.000Z,19.3
2023-02-11T12:25:34.000Z,19.3
2023-02-11T12:26:44.531Z,19.3
2023-02-11T12:27:54.000Z,19.3
2023-02-11T12:29:04.000Z,19.3
2023-02-11T12:30:14.000Z,19.4
2023-02-11T12:31:24.000Z,19.4
2023-02-11T12:32:35.000Z,19.4
2023-02-11T12:33:45.000Z,19.4
2023-02-11T12:34:55.000Z,19.3
2023-02-11T12:36:04.000Z,19.4
2023-02-11T12:37:14.000Z,19.4
2023-02-11T12:38:24.703Z,19.4
2023-02-11T12:39:34.000Z,19.4
2023-02-11T12:40:44.000Z,19.4
2023-02-11T12:41:55.000Z,19.4
2023-02-11T12:43:05.000Z,19.4
2023-02-11T12:44:15.000Z,19.4
2023-02-11T12:45:24.425Z,19.4
2023-02-11T12:46:33.000Z,19.4
2023-02-11T12:47:42.000Z,19.4
2023-02-11T12:48:51.000Z,19.4
2023-02-11T12:50:01.948Z,19.3
2023-02-11T12:51:12.000Z,19.3
2023-02-11T12:52:22.000Z,19.4
2023-02-11T12:53:32.000Z,19.3
2023-02-11T12:54:42.419Z,19.4
2023-02-11T12:55:52.000Z,19.3
2023-02-11T12:57:02.000Z,19.4
2023-02-11T12:58:12.764Z,19.3
2023-02-11T12:59:22.000Z,19.4
2023-02-11T13:00:32.991Z,19.3
2023-02-11T13:01:43.107Z,19.3
2023-02-11T13:02:53.223Z,19.4
2023-02-11T13:04:02.358Z,19.4
2023-02-11T13:05:12.000Z,19.3
2023-02-11T13:06:22.000Z,19.3
2023-02-11T13:07:32.000Z,19.4
2023-02-11T13:08:42.821Z,19.3
2023-02-11T13:09:52.935Z,19.3
2023-02-11T13:11:03.000Z,19.3
2023-02-11T13:12:12.192Z,19.3
2023-02-11T13:13:21.324Z,19.3
2023-02-11T13:14:30.466Z,19.4
2023-02-11T13:15:39.000Z,19.4
2023-02-11T13:16:49.000Z,19.4
2023-02-11T13:17:59.832Z,19.4
2023-02-11T13:19:09.000Z,19.4
2023-02-11T13:20:20.000Z,19.4
2023-02-11T13:21:30.000Z,19.4
2023-02-11T13:22:40.295Z,19.4
2023-02-11T13:23:50.408Z,19.4
2023-02-11T13:25:00.539Z,19.4
2023-02-11T13:26:10.000Z,19.4
2023-02-11T13:27:20.766Z,19.4
2023-02-11T13:28:30.877Z,19.4
2023-02-11T13:29:40.000Z,19.3
2023-02-11T13:30:50.000Z,19.4
2023-02-11T13:32:00.000Z,19.4
2023-02-11T13:33:10.000Z,19.4
2023-02-11T13:34:20.000Z,19.4
2023-02-11T13:35:30.000Z,19.4
2023-02-11T13:36:40.699Z,19.4
2023-02-11T13:37:50.820Z,19.3
2023-02-11T13:38:59.000Z,19.3
2023-02-11T13:40:09.090Z,19.3
2023-02-11T13:41:18.000Z,19.3
2023-02-11T13:42:27.372Z,19.3
2023-02-11T13:43:37.479Z,19.3
2023-02-11T13:44:47.000Z,19.3
2023-02-11T13:45:57.715Z,19.4
2023-02-11T13:47:07.000Z,19.4
2023-02-11T13:48:17.945Z,19.3
2023-02-11T13:49:28.077Z,19.3
2023-02-11T13:50:38.000Z,19.3
2023-02-11T13:51:48.292Z,19.3
2023-02-11T13:52:58.000Z,19.3
2023-02-11T13:54:08.000Z,19.3
2023-02-11T13:55:18.644Z,19.3
2023-02-11T13:56:28.000Z,19.3
2023-02-11T13:57:37.885Z,19.3
2023-02-11T13:58:47.000Z,19.3
2023-02-11T13:59:58.000Z,19.3
2023-02-11T14:01:08.000Z,19.3
2023-02-11T14:02:18.366Z,19.3
2023-02-11T14:03:28.000Z,19.3
2023-02-11T14:04:38.583Z,19.3
2023-02-11T14:05:47.000Z,19.3
2023-02-11T14:06:56.000Z,19.3
2023-02-11T14:08:06.000Z,19.3
2023-02-11T14:09:17.103Z,19.3
2023-02-11T14:10:27.000Z,19.3
2023-02-11T14:11:37.000Z,19.3
2023-02-11T14:12:47.434Z,19.3
2023-02-11T14:13:57.553Z,19.3
2023-02-11T14:15:07.672Z,19.3
2023-02-11T14:16:17.791Z,19.3
2023-02-11T14:17:27.000Z,19.3
2023-02-11T14:18:38.000Z,19.3
2023-02-11T14:19:48.000Z,19.4
2023-02-11T14:20:58.000Z,19.3
2023-02-11T14:22:07.000Z,19.3
2023-02-11T14:23:17.495Z,19.3
2023-02-11T14:24:27.616Z,19.3
2023-02-11T14:25:37.736Z,19.3
2023-02-11T14:26:47.000Z,19.3
2023-02-11T14:27:57.000Z,19.3
2023-02-11T14:29:08.000Z,19.3
2023-02-11T14:30:17.000Z,19.3
2023-02-11T14:31:26.000Z,19.3
2023-02-11T14:32:36.465Z,19.3
2023-02-11T14:33:45.609Z,19.3
2023-02-11T14:34:54.000Z,19.3
2023-02-11T14:36:04.000Z,19.3
2023-02-11T14:37:14.001Z,19.3
2023-02-11T14:38:23.000Z,19.4
2023-02-11T14:39:33.000Z,19.4
2023-02-11T14:40:43.000Z,19.4
2023-02-11T14:41:53.000Z,19.4
2023-02-11T14:43:03.000Z,19.4
2023-02-11T14:44:13.708Z,19.4
2023-02-11T14:45:23.000Z,19.4
2023-02-11T14:46:33.000Z,19.4
2023-02-11T14:47:44.064Z,19.4
2023-02-11T14:48:54.000Z,19.4
2023-02-11T14:50:04.296Z,19.4
2023-02-11T14:51:14.414Z,19.4
2023-02-11T14:52:24.523Z,19.4
2023-02-11T14:53:33.000Z,19.4
2023-02-11T14:54:43.000Z,19.4
2023-02-11T14:55:53.890Z,19.4
2023-02-11T14:57:04.001Z,19.4
2023-02-11T14:58:14.114Z,19.4
2023-02-11T14:59:24.000Z,19.5
2023-02-11T15:00:34.366Z,19.5
2023-02-11T15:01:43.000Z,19.5
2023-02-11T15:02:52.623Z,19.5
2023-02-11T15:04:02.742Z,19.5
2023-02-11T15:05:11.881Z,19.5
2023-02-11T15:06:21.012Z,19.5
2023-02-11T15:07:31.000Z,19.5
2023-02-11T15:08:41.000Z,19.5
2023-02-11T15:09:51.364Z,19.5
2023-02-11T15:11:01.480Z,19.5
2023-02-11T15:12:11.000Z,19.5
2023-02-11T15:13:21.708Z,19.5
2023-02-11T15:14:31.836Z,19.5
2023-02-11T15:15:41.000Z,19.4
2023-02-11T15:16:52.000Z,19.5
2023-02-11T15:18:02.000Z,19.4
2023-02-11T15:19:12.294Z,19.5
2023-02-11T15:20:22.409Z,19.4
2023-02-11T15:21:31.000Z,19.4
2023-02-11T15:22:41.000Z,19.4
2023-02-11T15:23:51.769Z,19.4
2023-02-11T15:25:01.000Z,19.4
2023-02-11T15:26:12.006Z,19.4
2023-02-11T15:27:22.000Z,19.4
2023-02-11T15:28:32.000Z,19.4
2023-02-11T15:29:41.000Z,19.4
2023-02-11T15:30:50.000Z,19.4
2023-02-11T15:32:00.621Z,19.4
2023-02-11T15:33:10.000Z,19.4
2023-02-11T15:34:20.000Z,19.4